Time;durP1;ratioP1;P1;durP2;ratioP2;P2;SDS_P1;SDS_P2;PMS_P1;PMS_P2;Temp;Humidity;BMP_temperature;BMP_pressure;BME280_temperature;BME280_humidity;BME280_pressure;Samples;Min_cycle;Max_cycle;Signal;HPM_P1;HPM_P2
2021/01/08 00:01:44;;;;;;;32.60;29.70;;;3.30;1.00;;;;;;5016795;28;20177;-71
2021/01/08 00:04:09;;;;;;;30.67;27.77;;;3.30;1.00;;;;;;5016274;28;20421;-71
2021/01/08 00:06:35;;;;;;;29.60;26.80;;;3.30;1.00;;;;;;5016007;28;20163;-71
2021/01/08 00:09:01;;;;;;;29.37;26.87;;;3.30;1.00;;;;;;5016160;28;20269;-71
2021/01/08 00:11:26;;;;;;;27.97;24.60;;;3.30;1.00;;;;;;5016415;28;20406;-71
2021/01/08 00:13:53;;;;;;;26.17;23.90;;;3.30;1.00;;;;;;5016456;28;20460;-71
2021/01/08 00:16:19;;;;;;;28.63;25.73;;;3.30;1.00;;;;;;5016390;28;20305;-71
2021/01/08 00:18:45;;;;;;;25.05;22.55;;;3.30;1.00;;;;;;5016297;28;20230;-71
2021/01/08 00:21:11;;;;;;;27.35;25.00;;;3.40;1.00;;;;;;5015958;28;20213;-71
2021/01/08 00:23:37;;;;;;;28.55;26.50;;;3.40;1.00;;;;;;5016098;28;20168;-71
2021/01/08 00:26:02;;;;;;;33.13;30.57;;;3.30;1.00;;;;;;5015433;28;20530;-71
2021/01/08 00:28:28;;;;;;;32.37;29.77;;;3.30;1.00;;;;;;5016135;28;20183;-71
2021/01/08 00:30:53;;;;;;;30.83;28.20;;;3.30;1.00;;;;;;5016314;28;20171;-71
2021/01/08 00:33:19;;;;;;;30.97;28.53;;;3.30;1.00;;;;;;5015745;28;20554;-71
2021/01/08 00:35:45;;;;;;;28.10;25.77;;;3.40;1.00;;;;;;5015516;28;20214;-71
2021/01/08 00:38:10;;;;;;;26.60;24.20;;;3.40;1.00;;;;;;5015676;28;20517;-71
2021/01/08 00:40:36;;;;;;;27.03;24.60;;;3.40;1.00;;;;;;5015464;28;20219;-71
2021/01/08 00:43:02;;;;;;;29.20;26.80;;;3.40;1.00;;;;;;5015882;28;20402;-71
2021/01/08 00:45:28;;;;;;;28.07;26.07;;;3.40;1.00;;;;;;5015567;28;20452;-71
2021/01/08 00:47:53;;;;;;;28.17;26.17;;;3.40;1.00;;;;;;5015345;28;20429;-71
2021/01/08 00:50:20;;;;;;;33.60;31.40;;;3.40;1.00;;;;;;5015447;28;20163;-71
2021/01/08 00:52:45;;;;;;;30.88;28.63;;;3.40;1.00;;;;;;5015525;28;20216;-71
2021/01/08 00:55:12;;;;;;;30.23;27.77;;;3.40;1.00;;;;;;5015388;28;20179;-71
2021/01/08 00:57:38;;;;;;;30.38;28.58;;;3.40;1.00;;;;;;5014886;28;20268;-71
2021/01/08 01:00:05;;;;;;;32.50;30.10;;;3.40;1.00;;;;;;5015775;28;20254;-71
2021/01/08 01:02:32;;;;;;;29.73;27.52;;;3.40;1.00;;;;;;5013794;28;20775;-71
2021/01/08 01:04:58;;;;;;;33.25;30.80;;;3.50;1.00;;;;;;5015066;28;20548;-71
2021/01/08 01:07:24;;;;;;;29.87;27.60;;;3.50;1.00;;;;;;5014558;28;20241;-71
2021/01/08 01:09:49;;;;;;;29.47;27.20;;;3.40;1.00;;;;;;5014481;28;20327;-71
2021/01/08 01:12:15;;;;;;;27.63;25.53;;;3.40;1.00;;;;;;5014376;28;20182;-71
2021/01/08 01:14:40;;;;;;;33.40;27.47;;;3.50;1.00;;;;;;5014560;28;20185;-71
2021/01/08 01:17:06;;;;;;;28.70;26.20;;;3.50;1.00;;;;;;5013945;28;20179;-71
2021/01/08 01:19:32;;;;;;;35.00;32.40;;;3.50;1.00;;;;;;5014169;28;20198;-71
2021/01/08 01:21:58;;;;;;;33.53;30.20;;;3.50;1.00;;;;;;5014107;28;20884;-71
2021/01/08 01:24:24;;;;;;;30.50;28.30;;;3.50;1.00;;;;;;5014204;28;20523;-71
2021/01/08 01:26:58;;;;;;;30.27;27.77;;;3.50;1.00;;;;;;5013696;28;20503;-71
2021/01/08 01:29:23;;;;;;;28.95;26.45;;;3.50;1.00;;;;;;5013844;28;20266;-71
2021/01/08 01:31:50;;;;;;;33.83;31.30;;;3.60;1.00;;;;;;5013220;28;20275;-71
2021/01/08 01:34:15;;;;;;;36.60;33.83;;;3.50;1.00;;;;;;5013662;28;20171;-71
2021/01/08 01:36:41;;;;;;;33.87;31.20;;;3.50;1.00;;;;;;5013390;28;20545;-71
2021/01/08 01:39:06;;;;;;;30.47;27.60;;;3.50;1.00;;;;;;5014127;28;20191;-71
2021/01/08 01:41:32;;;;;;;35.33;32.23;;;3.50;1.00;;;;;;5013581;28;20175;-71
2021/01/08 01:43:58;;;;;;;34.53;31.40;;;3.50;1.00;;;;;;5013578;28;20695;-71
2021/01/08 01:46:24;;;;;;;34.95;31.85;;;3.50;1.00;;;;;;5013449;28;20554;-71
2021/01/08 01:48:50;;;;;;;34.70;31.30;;;3.50;1.00;;;;;;5013788;28;20242;-71
2021/01/08 01:51:18;;;;;;;34.22;30.90;;;3.40;1.00;;;;;;5013722;28;20417;-71
2021/01/08 01:53:44;;;;;;;42.15;38.60;;;3.40;1.00;;;;;;5013827;28;20171;-71
2021/01/08 01:56:10;;;;;;;33.47;30.77;;;3.40;1.00;;;;;;5013328;28;20322;-71
2021/01/08 01:58:35;;;;;;;27.70;24.83;;;3.40;1.00;;;;;;5013965;28;20433;-71
2021/01/08 02:01:02;;;;;;;29.13;26.37;;;3.40;1.00;;;;;;5013623;28;20178;-71
2021/01/08 02:03:47;;;;;;;26.35;24.02;;;3.40;1.00;;;;;;5013535;28;20175;-71
2021/01/08 02:06:17;;;;;;;34.70;31.45;;;3.50;1.00;;;;;;5013184;28;20285;-71
2021/01/08 02:08:46;;;;;;;25.48;23.38;;;3.40;1.00;;;;;;4992568;28;576366;-71
2021/01/08 02:11:15;;;;;;;32.33;29.60;;;3.40;1.00;;;;;;5014656;28;20164;-71
2021/01/08 02:14:05;;;;;;;24.27;22.17;;;3.40;1.00;;;;;;5014277;28;20610;-71
2021/01/08 02:16:33;;;;;;;25.98;23.63;;;3.40;1.00;;;;;;5013738;28;20171;-71
2021/01/08 02:18:59;;;;;;;24.90;22.80;;;3.40;1.00;;;;;;5014354;28;20191;-71
2021/01/08 02:21:30;;;;;;;25.10;23.10;;;3.40;1.00;;;;;;5014479;28;20167;-71
2021/01/08 02:24:13;;;;;;;27.50;24.80;;;3.40;1.00;;;;;;5013710;28;20173;-71
2021/01/08 02:26:40;;;;;;;30.55;24.35;;;3.40;1.00;;;;;;5013719;28;20159;-71
2021/01/08 02:29:06;;;;;;;30.15;27.95;;;3.40;1.00;;;;;;5014137;28;20212;-71
2021/01/08 02:31:32;;;;;;;29.00;27.13;;;3.30;1.00;;;;;;5014168;28;20629;-71
2021/01/08 02:33:59;;;;;;;28.35;26.25;;;3.30;1.00;;;;;;5014324;28;20403;-71
2021/01/08 02:36:26;;;;;;;26.85;24.67;;;3.30;1.00;;;;;;5013599;28;20171;-71
2021/01/08 02:38:53;;;;;;;28.25;26.25;;;3.30;1.00;;;;;;5013811;28;20202;-71
2021/01/08 02:41:20;;;;;;;25.05;22.95;;;3.30;1.00;;;;;;5014259;28;20502;-71
2021/01/08 02:43:47;;;;;;;25.27;23.38;;;3.30;1.00;;;;;;5017455;28;20254;-71
2021/01/08 02:46:12;;;;;;;26.38;24.35;;;3.30;1.00;;;;;;5017800;28;20218;-71
2021/01/08 02:48:38;;;;;;;27.73;25.70;;;3.30;1.00;;;;;;5017642;28;20186;-71
2021/01/08 02:51:04;;;;;;;22.47;20.67;;;3.40;1.00;;;;;;5018031;28;20164;-71
2021/01/08 02:53:32;;;;;;;28.40;26.23;;;3.40;1.00;;;;;;5017717;28;20171;-71
2021/01/08 02:56:05;;;;;;;29.50;27.60;;;3.40;1.00;;;;;;5017385;28;20489;-71
2021/01/08 02:58:32;;;;;;;30.13;27.73;;;3.30;1.00;;;;;;5016081;28;20207;-71
2021/01/08 03:00:58;;;;;;;27.70;25.60;;;3.30;1.00;;;;;;5016787;28;20179;-71
2021/01/08 03:03:29;;;;;;;27.33;25.20;;;3.30;1.00;;;;;;5017322;28;20172;-71
2021/01/08 03:05:58;;;;;;;26.35;24.15;;;3.30;1.00;;;;;;5017426;28;20195;-71
2021/01/08 03:08:24;;;;;;;20.98;18.92;;;3.40;1.00;;;;;;5017363;28;20210;-71
2021/01/08 03:10:50;;;;;;;23.10;21.33;;;3.40;1.00;;;;;;5016399;28;20178;-71
2021/01/08 03:13:17;;;;;;;22.50;20.67;;;3.30;1.00;;;;;;5017721;28;20171;-71
2021/01/08 03:15:42;;;;;;;25.95;24.05;;;3.30;1.00;;;;;;5017495;28;20168;-71
2021/01/08 03:18:08;;;;;;;31.20;29.20;;;3.30;1.00;;;;;;5017085;28;20665;-71
2021/01/08 03:20:34;;;;;;;26.50;24.50;;;3.20;1.00;;;;;;5017197;28;20183;-71
2021/01/08 03:23:03;;;;;;;22.90;21.30;;;3.30;1.00;;;;;;5017299;28;20182;-71
2021/01/08 03:25:29;;;;;;;27.63;25.77;;;3.30;1.00;;;;;;5017038;28;20206;-71
2021/01/08 03:27:54;;;;;;;26.67;24.87;;;3.30;1.00;;;;;;5017337;28;20195;-71
2021/01/08 03:30:20;;;;;;;23.93;22.23;;;3.20;1.00;;;;;;5017073;28;20406;-71
2021/01/08 03:32:46;;;;;;;23.40;21.90;;;3.30;1.00;;;;;;5015647;28;20216;-71
2021/01/08 03:35:11;;;;;;;30.27;28.47;;;3.30;1.00;;;;;;5015656;28;20410;-71
2021/01/08 03:37:37;;;;;;;29.13;27.23;;;3.20;1.00;;;;;;5016713;28;20701;-71
2021/01/08 03:40:07;;;;;;;24.83;23.23;;;3.20;1.00;;;;;;5016600;28;20574;-71
2021/01/08 03:42:33;;;;;;;24.85;23.25;;;3.20;1.00;;;;;;5015928;28;20630;-71
2021/01/08 03:44:59;;;;;;;25.90;24.40;;;3.10;1.00;;;;;;5016539;28;20724;-71
2021/01/08 03:47:24;;;;;;;24.83;22.93;;;3.10;1.00;;;;;;5016490;28;20168;-71
2021/01/08 03:49:50;;;;;;;23.53;21.73;;;3.10;1.00;;;;;;5016737;28;20543;-71
2021/01/08 03:52:16;;;;;;;23.33;21.67;;;3.10;1.00;;;;;;5016766;28;20175;-71
2021/01/08 03:54:41;;;;;;;20.00;18.63;;;3.10;1.00;;;;;;5016469;28;20176;-71
2021/01/08 03:57:07;;;;;;;20.63;19.20;;;3.10;1.00;;;;;;5016226;28;20171;-71
2021/01/08 03:59:33;;;;;;;19.63;18.13;;;3.10;1.00;;;;;;5016905;28;20206;-71
2021/01/08 04:01:58;;;;;;;21.83;20.43;;;3.10;1.00;;;;;;5016217;28;20182;-71
2021/01/08 04:04:24;;;;;;;20.80;19.20;;;3.00;1.00;;;;;;5016360;28;20533;-71
2021/01/08 04:06:50;;;;;;;21.50;19.97;;;3.00;1.00;;;;;;5016383;28;20167;-71
2021/01/08 04:09:19;;;;;;;20.48;18.98;;;3.00;1.00;;;;;;5016628;28;20210;-71
2021/01/08 04:11:46;;;;;;;21.58;20.17;;;3.10;1.00;;;;;;5016693;28;20184;-71
2021/01/08 04:14:12;;;;;;;26.35;24.58;;;3.00;1.00;;;;;;5016445;28;20171;-71
2021/01/08 04:16:43;;;;;;;25.37;23.40;;;3.00;1.00;;;;;;5015945;28;20169;-71
2021/01/08 04:19:10;;;;;;;26.58;25.08;;;3.00;1.00;;;;;;5016365;28;20234;-71
2021/01/08 04:21:37;;;;;;;24.17;22.58;;;3.00;1.00;;;;;;5016277;28;20179;-71
2021/01/08 04:24:03;;;;;;;21.88;20.33;;;3.00;1.00;;;;;;5015049;28;20171;-71
2021/01/08 04:26:29;;;;;;;24.85;22.95;;;3.00;1.00;;;;;;5015909;28;20223;-71
2021/01/08 04:28:55;;;;;;;21.07;19.33;;;3.00;1.00;;;;;;5015798;28;20199;-71
2021/01/08 04:31:20;;;;;;;23.60;22.00;;;3.00;1.00;;;;;;5015909;28;20790;-71
2021/01/08 04:33:46;;;;;;;24.50;22.80;;;3.00;1.00;;;;;;5016009;28;20626;-71
2021/01/08 04:36:12;;;;;;;21.93;20.40;;;3.00;1.00;;;;;;5014342;28;20187;-71
2021/01/08 04:38:41;;;;;;;20.80;19.43;;;3.00;1.00;;;;;;5015663;28;20485;-71
2021/01/08 04:41:08;;;;;;;23.30;21.55;;;3.00;1.00;;;;;;5016146;28;20899;-71
2021/01/08 04:43:36;;;;;;;23.17;21.70;;;3.00;1.00;;;;;;5015661;28;20506;-71
2021/01/08 04:46:12;;;;;;;24.55;23.10;;;3.00;1.00;;;;;;5015128;28;20203;-71
2021/01/08 04:48:38;;;;;;;25.58;23.75;;;3.00;1.00;;;;;;5015544;28;20199;-71
2021/01/08 04:51:05;;;;;;;25.25;23.73;;;3.00;1.00;;;;;;5015527;28;20221;-71
2021/01/08 04:53:32;;;;;;;24.55;22.73;;;3.00;1.00;;;;;;5015923;28;20179;-71
2021/01/08 04:56:02;;;;;;;22.25;20.45;;;3.00;1.00;;;;;;5015078;28;20205;-71
2021/01/08 04:58:31;;;;;;;22.63;21.13;;;3.00;1.00;;;;;;5015312;28;20332;-71
2021/01/08 05:00:56;;;;;;;29.20;27.48;;;2.90;1.00;;;;;;5015456;28;20164;-71
2021/01/08 05:03:22;;;;;;;22.90;21.17;;;2.90;1.00;;;;;;5015578;28;20186;-71
2021/01/08 05:05:48;;;;;;;26.23;24.40;;;2.90;1.00;;;;;;5014500;28;20569;-71
2021/01/08 05:08:14;;;;;;;26.58;24.40;;;2.90;1.00;;;;;;5014906;28;20326;-71
2021/01/08 05:10:39;;;;;;;22.87;20.97;;;2.80;1.00;;;;;;5013650;28;20261;-71
2021/01/08 05:13:05;;;;;;;23.37;21.57;;;2.80;1.00;;;;;;5015258;28;20171;-71
2021/01/08 05:15:30;;;;;;;27.10;25.07;;;2.80;1.00;;;;;;5015072;28;20186;-71
2021/01/08 05:17:56;;;;;;;28.40;26.57;;;2.80;1.00;;;;;;5014971;28;20739;-71
2021/01/08 05:20:23;;;;;;;24.73;22.63;;;2.70;1.00;;;;;;5014151;28;20206;-71
2021/01/08 05:22:50;;;;;;;28.73;24.27;;;2.70;1.00;;;;;;5015329;28;20258;-71
2021/01/08 05:25:16;;;;;;;24.55;22.83;;;2.70;1.00;;;;;;5014692;28;20203;-71
2021/01/08 05:27:42;;;;;;;23.27;21.53;;;2.70;1.00;;;;;;5014658;28;20266;-71
2021/01/08 05:30:18;;;;;;;25.60;23.70;;;2.70;1.00;;;;;;5014529;28;20648;-71
2021/01/08 05:32:45;;;;;;;20.90;19.30;;;2.70;1.00;;;;;;5014525;28;20413;-71
2021/01/08 05:35:15;;;;;;;25.02;23.23;;;2.60;1.00;;;;;;5014641;28;20226;-71
2021/01/08 05:37:44;;;;;;;24.77;23.17;;;2.60;1.00;;;;;;5014218;28;20753;-71
2021/01/08 05:40:10;;;;;;;21.10;19.63;;;2.60;1.00;;;;;;5014366;28;20187;-71
2021/01/08 05:42:54;;;;;;;22.20;20.50;;;2.60;1.00;;;;;;5014837;28;20194;-71
2021/01/08 05:45:20;;;;;;;20.80;19.35;;;2.60;1.00;;;;;;5014887;28;20646;-71
2021/01/08 05:47:47;;;;;;;22.02;20.17;;;2.60;1.00;;;;;;5014083;28;20191;-71
2021/01/08 05:50:17;;;;;;;23.15;21.42;;;2.60;1.00;;;;;;5014395;28;20238;-71
2021/01/08 05:52:46;;;;;;;25.35;23.45;;;2.60;1.00;;;;;;5014531;28;20547;-71
2021/01/08 05:55:13;;;;;;;21.50;19.58;;;2.60;1.00;;;;;;5014515;28;20527;-71
2021/01/08 05:57:41;;;;;;;22.83;21.10;;;2.60;1.00;;;;;;5014427;28;20214;-71
2021/01/08 06:00:07;;;;;;;22.58;20.75;;;2.60;1.00;;;;;;5014673;28;20618;-71
2021/01/08 06:02:34;;;;;;;19.20;17.63;;;2.60;1.00;;;;;;5013997;28;20623;-71
2021/01/08 06:05:00;;;;;;;21.38;19.40;;;2.60;1.00;;;;;;5014503;28;20199;-71
2021/01/08 06:07:28;;;;;;;22.87;21.27;;;2.60;1.00;;;;;;5013804;28;20547;-71
2021/01/08 06:09:59;;;;;;;22.77;21.05;;;2.60;1.00;;;;;;5014507;28;20294;-71
2021/01/08 06:12:24;;;;;;;20.10;18.67;;;2.60;1.00;;;;;;5014695;28;20170;-71
2021/01/08 06:14:51;;;;;;;21.67;20.10;;;2.50;1.00;;;;;;5014433;28;20187;-71
2021/01/08 06:17:18;;;;;;;20.00;18.50;;;2.50;1.00;;;;;;5013405;28;20318;-71
2021/01/08 06:19:45;;;;;;;20.90;19.10;;;2.50;1.00;;;;;;5014273;28;20230;-71
2021/01/08 06:22:12;;;;;;;22.15;20.25;;;2.50;1.00;;;;;;5014234;28;20178;-71
2021/01/08 06:24:38;;;;;;;21.35;19.60;;;2.50;1.00;;;;;;5014181;28;20199;-71
2021/01/08 06:27:04;;;;;;;23.37;20.97;;;2.40;1.00;;;;;;5014256;28;20171;-71
2021/01/08 06:29:33;;;;;;;23.67;21.58;;;2.50;1.00;;;;;;5013700;28;20588;-71
2021/01/08 06:32:20;;;;;;;24.83;23.08;;;2.50;1.00;;;;;;5013708;28;20259;-71
2021/01/08 06:34:46;;;;;;;25.92;24.00;;;2.50;1.00;;;;;;5014162;28;20652;-71
2021/01/08 06:37:14;;;;;;;26.80;24.58;;;2.50;1.00;;;;;;5014038;28;20179;-71
2021/01/08 06:39:43;;;;;;;26.63;24.48;;;2.50;1.00;;;;;;5013640;28;20223;-71
2021/01/08 06:42:09;;;;;;;29.33;27.10;;;2.50;1.00;;;;;;5013633;28;20175;-71
2021/01/08 06:44:35;;;;;;;29.83;27.33;;;2.50;1.00;;;;;;5013678;28;20274;-71
2021/01/08 06:47:03;;;;;;;35.65;33.10;;;2.50;1.00;;;;;;5013495;28;20733;-71
2021/01/08 06:49:36;;;;;;;29.30;26.73;;;2.50;1.00;;;;;;5014012;28;20638;-71
2021/01/08 06:52:03;;;;;;;29.63;26.90;;;2.50;1.00;;;;;;5012895;28;20246;-71
2021/01/08 06:54:29;;;;;;;26.10;23.98;;;2.60;1.00;;;;;;5014013;28;20582;-71
2021/01/08 06:57:10;;;;;;;24.80;22.67;;;2.50;1.00;;;;;;5013564;28;20195;-71
2021/01/08 06:59:44;;;;;;;22.88;20.75;;;2.50;1.00;;;;;;5013845;28;20442;-71
2021/01/08 07:02:15;;;;;;;22.38;20.48;;;2.60;1.00;;;;;;5013897;28;20176;-71
2021/01/08 07:04:42;;;;;;;25.30;23.05;;;2.60;1.00;;;;;;5013808;28;20195;-71
2021/01/08 07:07:12;;;;;;;25.65;23.25;;;2.50;1.00;;;;;;5013087;28;20186;-71
2021/01/08 07:09:40;;;;;;;26.00;23.60;;;2.60;1.00;;;;;;5012087;28;20198;-71
2021/01/08 07:12:09;;;;;;;28.40;25.50;;;2.60;1.00;;;;;;5013629;28;20167;-71
2021/01/08 07:14:36;;;;;;;27.85;24.98;;;2.50;1.00;;;;;;5013724;28;20174;-71
2021/01/08 07:17:05;;;;;;;24.00;21.75;;;2.50;1.00;;;;;;5011930;28;20189;-71
2021/01/08 07:19:31;;;;;;;22.85;20.80;;;2.60;1.00;;;;;;5013391;28;20290;-71
2021/01/08 07:22:00;;;;;;;22.87;20.67;;;2.50;1.00;;;;;;5013574;28;20322;-71
2021/01/08 07:24:34;;;;;;;20.77;19.15;;;2.50;1.00;;;;;;5013443;28;20260;-71
2021/01/08 07:27:19;;;;;;;21.90;20.00;;;2.50;1.00;;;;;;5013533;28;20183;-71
2021/01/08 07:29:49;;;;;;;27.15;24.98;;;2.50;1.00;;;;;;5016500;28;20159;-71
2021/01/08 07:32:30;;;;;;;25.08;22.98;;;2.50;1.00;;;;;;5017054;28;20174;-71
2021/01/08 07:34:56;;;;;;;26.80;23.90;;;2.50;1.00;;;;;;5016742;28;20234;-71
2021/01/08 07:37:21;;;;;;;26.60;24.27;;;2.60;1.00;;;;;;5016883;28;20263;-71
2021/01/08 07:39:47;;;;;;;27.73;25.37;;;2.60;1.00;;;;;;5017249;28;20183;-71
2021/01/08 07:42:34;;;;;;;24.07;21.90;;;2.60;1.00;;;;;;5017225;28;20204;-71
2021/01/08 07:45:01;;;;;;;26.15;24.13;;;2.70;1.00;;;;;;5017046;28;20187;-71
2021/01/08 07:47:28;;;;;;;25.15;22.73;;;2.60;1.00;;;;;;5016518;28;20172;-71
2021/01/08 07:50:17;;;;;;;20.92;19.13;;;2.60;1.00;;;;;;5016429;28;20256;-71
2021/01/08 07:52:46;;;;;;;24.02;21.98;;;2.70;1.00;;;;;;5015756;28;20190;-71
2021/01/08 07:55:13;;;;;;;26.42;24.27;;;2.60;1.00;;;;;;5015094;28;20197;-71
2021/01/08 07:58:02;;;;;;;19.52;17.75;;;2.60;1.00;;;;;;5016374;28;20199;-70
2021/01/08 08:00:28;;;;;;;49.20;38.95;;;2.70;1.00;;;;;;5016827;28;20205;-71
2021/01/08 08:02:57;;;;;;;27.40;24.73;;;2.60;1.00;;;;;;5016192;28;20207;-70
2021/01/08 08:05:30;;;;;;;25.98;23.33;;;2.60;1.00;;;;;;5015042;28;20199;-71
2021/01/08 08:08:00;;;;;;;26.58;23.77;;;2.60;1.00;;;;;;5015932;28;20703;-70
2021/01/08 08:10:28;;;;;;;44.97;38.75;;;2.60;1.00;;;;;;5015170;28;20194;-71
2021/01/08 08:12:54;;;;;;;30.33;27.27;;;2.60;1.00;;;;;;5015686;28;20176;-71
2021/01/08 08:15:20;;;;;;;26.48;23.67;;;2.70;1.00;;;;;;5015777;28;20229;-70
2021/01/08 08:17:47;;;;;;;26.13;21.35;;;2.70;1.00;;;;;;5016427;28;20222;-70
2021/01/08 08:20:20;;;;;;;26.95;22.20;;;2.70;1.00;;;;;;5015836;28;20175;-71
2021/01/08 08:22:46;;;;;;;30.90;26.45;;;2.70;1.00;;;;;;5016277;28;20186;-71
2021/01/08 08:25:42;;;;;;;28.02;24.63;;;2.70;1.00;;;;;;5015715;28;20530;-71
2021/01/08 08:28:07;;;;;;;25.17;22.48;;;2.70;1.00;;;;;;5015088;28;20207;-71
2021/01/08 08:30:33;;;;;;;34.23;29.60;;;2.70;1.00;;;;;;5015922;28;20182;-71
2021/01/08 08:33:00;;;;;;;34.40;30.80;;;2.70;1.00;;;;;;5015906;28;20182;-71
2021/01/08 08:35:26;;;;;;;33.80;30.40;;;2.70;1.00;;;;;;5015661;28;20254;-72
2021/01/08 08:37:53;;;;;;;31.80;29.00;;;2.70;1.00;;;;;;5015806;28;20274;-71
2021/01/08 08:40:29;;;;;;;32.65;29.23;;;2.70;1.00;;;;;;5014964;28;20441;-71
2021/01/08 08:42:57;;;;;;;32.65;29.60;;;2.70;1.00;;;;;;5007565;28;20297;-71
2021/01/08 08:45:25;;;;;;;34.30;31.40;;;2.70;1.00;;;;;;5024379;28;20195;-71
2021/01/08 08:47:55;;;;;;;30.73;27.70;;;2.70;1.00;;;;;;5014795;28;20229;-71
2021/01/08 08:50:22;;;;;;;29.80;27.30;;;2.70;1.00;;;;;;5014089;28;20175;-71
2021/01/08 08:52:48;;;;;;;27.45;24.70;;;2.70;1.00;;;;;;5014897;28;20232;-71
2021/01/08 08:55:25;;;;;;;26.50;23.73;;;2.70;1.00;;;;;;5014676;28;20175;-71
2021/01/08 08:58:00;;;;;;;28.63;25.65;;;2.70;1.00;;;;;;5014697;28;20210;-71
2021/01/08 09:00:27;;;;;;;24.55;22.08;;;2.70;1.00;;;;;;5014556;28;20178;-71
2021/01/08 09:02:52;;;;;;;29.83;24.30;;;2.80;1.00;;;;;;5014569;28;20171;-71
2021/01/08 09:05:18;;;;;;;26.87;24.00;;;2.80;1.00;;;;;;5013819;28;20342;-71
2021/01/08 09:07:50;;;;;;;27.77;24.80;;;2.80;1.00;;;;;;5010953;28;20241;-71
2021/01/08 09:10:22;;;;;;;25.85;22.58;;;2.80;1.00;;;;;;5014736;28;20175;-71
2021/01/08 09:12:50;;;;;;;25.30;23.10;;;2.80;1.00;;;;;;5015161;28;20241;-71
2021/01/08 09:15:41;;;;;;;24.38;21.85;;;2.80;1.00;;;;;;5014799;28;20175;-71
2021/01/08 09:18:16;;;;;;;25.92;21.73;;;2.90;1.00;;;;;;5009128;28;20201;-71
2021/01/08 09:20:54;;;;;;;25.73;23.55;;;2.90;1.00;;;;;;5006608;28;20174;-71
2021/01/08 09:23:20;;;;;;;31.80;21.70;;;3.00;1.00;;;;;;5014762;28;20207;-71
2021/01/08 09:25:46;;;;;;;41.22;37.25;;;3.00;1.00;;;;;;5014454;28;20203;-71
2021/01/08 09:28:17;;;;;;;33.70;30.30;;;3.00;1.00;;;;;;5014398;28;20209;-71
2021/01/08 09:30:50;;;;;;;25.10;22.50;;;3.00;1.00;;;;;;5007406;28;20217;-70
2021/01/08 09:33:16;;;;;;;25.15;22.52;;;3.00;1.00;;;;;;5012971;28;20182;-71
2021/01/08 09:35:46;;;;;;;30.77;24.43;;;3.10;1.00;;;;;;5013718;28;20195;-72
2021/01/08 09:38:14;;;;;;;26.88;23.92;;;3.10;1.00;;;;;;5005700;28;20199;-71
2021/01/08 09:40:40;;;;;;;34.22;30.85;;;3.20;1.00;;;;;;5006410;28;20267;-71
2021/01/08 09:43:12;;;;;;;31.35;28.05;;;3.20;1.00;;;;;;5012302;28;20179;-72
2021/01/08 09:45:38;;;;;;;33.70;30.05;;;3.20;1.00;;;;;;5013824;28;20221;-72
2021/01/08 09:48:04;;;;;;;34.93;31.43;;;3.30;1.00;;;;;;5013856;28;20677;-72
2021/01/08 09:50:32;;;;;;;30.67;27.53;;;3.30;1.00;;;;;;5014175;28;20598;-71
2021/01/08 09:53:00;;;;;;;30.50;27.25;;;3.30;1.00;;;;;;5013878;28;20538;-72
2021/01/08 09:55:28;;;;;;;29.63;26.42;;;3.30;1.00;;;;;;5014295;28;20179;-71
2021/01/08 09:57:56;;;;;;;34.40;28.48;;;3.30;1.00;;;;;;5013412;28;20209;-71
2021/01/08 10:00:33;;;;;;;36.35;27.60;;;3.20;1.00;;;;;;5010449;28;20187;-71
2021/01/08 10:02:59;;;;;;;35.58;31.77;;;3.20;1.00;;;;;;5014029;28;20505;-71
2021/01/08 10:05:27;;;;;;;34.40;28.87;;;3.20;1.00;;;;;;5012358;28;20289;-71
2021/01/08 10:07:54;;;;;;;31.75;27.95;;;3.20;1.00;;;;;;5013425;28;20202;-71
2021/01/08 10:10:25;;;;;;;37.70;28.88;;;3.20;1.00;;;;;;5013685;28;20175;-71
2021/01/08 10:12:52;;;;;;;37.22;26.45;;;3.20;1.00;;;;;;5013336;28;20171;-71
2021/01/08 10:15:19;;;;;;;33.15;29.25;;;3.30;1.00;;;;;;5013955;28;20175;-72
2021/01/08 10:17:51;;;;;;;37.38;29.23;;;3.30;1.00;;;;;;4997829;28;20672;-71
2021/01/08 10:20:19;;;;;;;37.42;30.27;;;3.30;1.00;;;;;;5013829;28;20191;-71
2021/01/08 10:22:54;;;;;;;42.83;38.45;;;3.30;1.00;;;;;;5013734;28;20222;-76
2021/01/08 10:25:27;;;;;;;41.67;37.45;;;3.40;1.00;;;;;;5013863;28;20268;-72
2021/01/08 10:27:53;;;;;;;42.13;31.30;;;3.40;1.00;;;;;;5013434;28;20191;-71
2021/01/08 10:30:19;;;;;;;40.70;31.10;;;3.40;1.00;;;;;;5013935;28;20529;-71
2021/01/08 10:32:48;;;;;;;40.25;35.90;;;3.40;1.00;;;;;;5001456;28;20318;-71
2021/01/08 10:35:18;;;;;;;38.42;34.38;;;3.50;1.00;;;;;;5006769;28;20195;-71
2021/01/08 10:37:46;;;;;;;36.15;32.45;;;3.40;1.00;;;;;;5009438;28;20202;-71
2021/01/08 10:40:12;;;;;;;37.00;32.45;;;3.50;1.00;;;;;;5010359;28;20249;-71
2021/01/08 10:42:38;;;;;;;41.70;33.20;;;3.50;1.00;;;;;;5011055;28;20183;-71
2021/01/08 10:45:05;;;;;;;38.88;32.78;;;3.40;1.00;;;;;;5008210;28;20661;-71
2021/01/08 10:47:30;;;;;;;36.38;30.88;;;3.40;1.00;;;;;;5001165;28;20172;-71
2021/01/08 10:49:56;;;;;;;33.03;26.77;;;3.50;1.00;;;;;;5006462;28;20185;-71
2021/01/08 10:52:22;;;;;;;39.53;30.00;;;3.50;1.00;;;;;;5010408;28;20641;-71
2021/01/08 10:54:47;;;;;;;34.07;27.10;;;3.50;1.00;;;;;;5001074;28;20183;-71
2021/01/08 10:57:13;;;;;;;35.60;28.13;;;3.50;1.00;;;;;;4992303;28;20431;-71
2021/01/08 10:59:39;;;;;;;33.53;28.23;;;3.40;1.00;;;;;;5006529;28;20568;-71
2021/01/08 11:02:04;;;;;;;43.77;31.00;;;3.40;1.00;;;;;;5007918;28;20190;-71
2021/01/08 11:04:30;;;;;;;33.87;29.57;;;3.40;1.00;;;;;;5012033;28;20215;-71
2021/01/08 11:06:58;;;;;;;34.57;30.87;;;3.50;1.00;;;;;;5013373;28;20966;-72
2021/01/08 11:09:24;;;;;;;38.20;31.25;;;3.50;1.00;;;;;;5014209;28;20278;-71
2021/01/08 11:11:49;;;;;;;31.47;28.43;;;3.40;1.00;;;;;;5013283;28;20274;-71
2021/01/08 11:14:15;;;;;;;30.80;24.20;;;3.40;1.00;;;;;;5014669;28;20183;-72
2021/01/08 11:16:41;;;;;;;29.13;25.47;;;3.30;1.00;;;;;;4999444;28;20279;-71
2021/01/08 11:19:07;;;;;;;34.93;27.13;;;3.20;1.00;;;;;;5006838;28;20450;-72
2021/01/08 11:21:32;;;;;;;33.77;29.57;;;3.20;1.00;;;;;;5011685;28;20175;-72
2021/01/08 11:23:58;;;;;;;39.70;32.33;;;3.20;1.00;;;;;;5013708;28;20175;-72
2021/01/08 11:26:28;;;;;;;34.90;28.07;;;3.20;1.00;;;;;;5014052;28;20277;-71
2021/01/08 11:28:55;;;;;;;31.33;28.05;;;3.20;1.00;;;;;;5008664;28;20601;-71
2021/01/08 11:31:20;;;;;;;31.08;27.73;;;3.20;1.00;;;;;;5012760;28;20175;-71
2021/01/08 11:33:46;;;;;;;34.27;28.50;;;3.10;1.00;;;;;;5006629;28;20228;-71
2021/01/08 11:36:13;;;;;;;30.63;27.33;;;3.20;1.00;;;;;;5014045;28;20190;-71
2021/01/08 11:38:39;;;;;;;33.03;28.92;;;3.20;1.00;;;;;;5011569;28;20238;-71
2021/01/08 11:41:05;;;;;;;29.92;27.02;;;3.10;1.00;;;;;;5007651;28;20188;-71
2021/01/08 11:43:30;;;;;;;31.73;28.30;;;3.20;1.00;;;;;;5009441;28;20198;-71
2021/01/08 11:45:56;;;;;;;32.27;29.13;;;3.20;1.00;;;;;;5010965;28;20795;-71
2021/01/08 11:48:21;;;;;;;33.43;30.47;;;3.20;1.00;;;;;;5013594;28;20191;-71
2021/01/08 11:50:47;;;;;;;27.63;24.63;;;3.20;1.00;;;;;;5014323;28;20202;-71
2021/01/08 11:53:12;;;;;;;31.07;27.67;;;3.30;1.00;;;;;;5014354;28;20210;-71
2021/01/08 11:55:38;;;;;;;29.93;26.63;;;3.30;1.00;;;;;;5014145;28;20174;-71
2021/01/08 11:58:03;;;;;;;28.50;24.63;;;3.40;1.00;;;;;;5014132;28;20195;-71
2021/01/08 12:00:29;;;;;;;27.47;24.70;;;3.40;1.00;;;;;;5013998;28;20167;-71
2021/01/08 12:02:55;;;;;;;31.70;28.50;;;3.50;1.00;;;;;;5013719;28;20170;-71
2021/01/08 12:05:20;;;;;;;29.90;26.77;;;3.50;1.00;;;;;;5014032;28;20305;-71
2021/01/08 12:07:46;;;;;;;26.73;24.13;;;3.60;1.00;;;;;;5013613;28;20300;-71
2021/01/08 12:10:11;;;;;;;27.90;25.27;;;3.70;1.00;;;;;;5012929;28;20175;-71
2021/01/08 12:12:37;;;;;;;27.87;25.37;;;3.80;1.00;;;;;;5013911;28;20171;-71
2021/01/08 12:15:04;;;;;;;28.10;25.50;;;3.90;1.00;;;;;;5012228;28;20179;-71
2021/01/08 12:17:29;;;;;;;33.75;30.20;;;4.00;1.00;;;;;;5013351;28;20179;-71
2021/01/08 12:19:55;;;;;;;29.60;25.90;;;4.00;1.00;;;;;;5013225;28;20181;-71
2021/01/08 12:22:20;;;;;;;28.00;25.20;;;4.10;1.00;;;;;;5013666;28;20215;-71
2021/01/08 12:24:46;;;;;;;27.47;24.83;;;4.10;1.00;;;;;;5012943;28;20195;-72
2021/01/08 12:27:12;;;;;;;28.10;25.60;;;4.00;1.00;;;;;;5013291;28;20210;-71
2021/01/08 12:29:37;;;;;;;25.87;23.70;;;3.90;1.00;;;;;;5013351;28;20195;-71
2021/01/08 12:32:04;;;;;;;26.87;24.60;;;3.90;1.00;;;;;;5013252;28;20177;-71
2021/01/08 12:34:30;;;;;;;32.63;26.42;;;3.90;1.00;;;;;;5013537;28;20529;-71
2021/01/08 12:36:57;;;;;;;27.43;24.57;;;3.90;1.00;;;;;;5013336;28;20175;-71
2021/01/08 12:39:22;;;;;;;28.48;26.27;;;3.90;1.00;;;;;;5013632;28;20481;-71
2021/01/08 12:41:49;;;;;;;24.37;21.97;;;3.90;1.00;;;;;;5013144;28;20183;-71
2021/01/08 12:44:14;;;;;;;26.63;24.23;;;3.90;1.00;;;;;;5013358;28;20946;-71
2021/01/08 12:46:40;;;;;;;26.03;23.53;;;3.80;1.00;;;;;;5012844;28;20210;-71
2021/01/08 12:49:06;;;;;;;30.80;28.00;;;3.70;1.00;;;;;;5012965;28;20245;-71
2021/01/08 12:51:32;;;;;;;28.17;26.10;;;3.60;1.00;;;;;;5012989;28;20171;-71